METAR Data
IDs: Format: Raw Decoded Include TAF

Data at: 1524 UTC 25 Jan 2020

METAR for:KCKP (Cherokee Cnty, IA, US)
Text:KCKP 251515Z AUTO 28004KT 10SM OVC023 M03/M03 A3004 RMK AO2 T10261035
Temperature: -2.6°C ( 27°F)
Dewpoint: -3.5°C ( 26°F) [RH = 94%]
Pressure (altimeter):30.04 inches Hg (1017.4 mb)
Winds:from the W (280 degrees) at 5 MPH (4 knots; 2.1 m/s)
Visibility:10 or more sm (16+ km)
Ceiling:2300 feet AGL
Clouds: overcast cloud deck at 2300 feet AGL
QC Flag:automated observation with no human augmentation